Time Latitude Longitude Accuracy (66% radius in meters) Altitude (meters) Speed (km/hour) Bearing (degrees) Battery (%) GPS flag
06:30:32 57.205203 60.114967 0 0 0 0 1 delete
06:30:31 57.205217 60.115042 0 0 0 0 1 delete
06:30:30 57.205228 60.115104 0 0 0 0 1 delete
06:30:29 57.205239 60.115169 0 0 0 0 1 delete
06:30:28 57.205254 60.115226 0 0 0 0 1 delete
06:30:27 57.205275 60.115262 0 0 0 0 1 delete
06:30:26 57.205301 60.115262 0 0 0 0 1 delete
06:30:25 57.205327 60.115240 0 0 0 0 1 delete
06:30:24 57.205353 60.115212 0 0 0 0 1 delete
06:30:23 57.205379 60.115183 0 0 0 0 1 delete
06:30:22 57.205411 60.115155 0 0 0 0 1 delete
06:30:21 57.205441 60.115125 0 0 0 0 1 delete
06:30:20 57.205470 60.115090 0 0 0 0 1 delete
06:30:19 57.205493 60.115050 0 0 0 0 1 delete
06:30:18 57.205513 60.115007 0 0 0 0 1 delete
06:30:17 57.205534 60.114958 0 0 0 0 1 delete
06:30:16 57.205556 60.114907 0 0 0 0 1 delete
06:30:15 57.205580 60.114855 0 0 0 0 1 delete
06:30:14 57.205603 60.114807 0 0 0 0 1 delete
06:30:13 57.205626 60.114760 0 0 0 0 1 delete
06:30:12 57.205649 60.114710 0 0 0 0 1 delete
06:30:11 57.205672 60.114660 0 0 0 0 1 delete
06:30:10 57.205695 60.114613 0 0 0 0 1 delete
06:30:09 57.205717 60.114568 0 0 0 0 1 delete
06:30:08 57.205740 60.114521 0 0 0 0 1 delete
06:30:07 57.205762 60.114473 0 0 0 0 1 delete
06:30:06 57.205785 60.114429 0 0 0 0 1 delete
06:30:05 57.205808 60.114393 0 0 0 0 1 delete
06:30:04 57.205833 60.114359 0 0 0 0 1 delete
06:30:03 57.205858 60.114325 0 0 0 0 1 delete
06:30:02 57.205885 60.114287 0 0 0 0 1 delete
06:30:01 57.205913 60.114248 0 0 0 0 1 delete
06:30:00 57.205943 60.114207 0 0 0 0 1 delete
06:29:59 57.205975 60.114169 0 0 0 0 1 delete
06:29:58 57.206007 60.114128 0 0 0 0 1 delete
06:29:57 57.206041 60.114093 0 0 0 0 1 delete
06:29:56 57.206080 60.114061 0 0 0 0 1 delete
06:29:55 57.206129 60.114036 0 0 0 0 1 delete
06:29:54 57.206181 60.114021 0 0 0 0 1 delete
06:29:53 57.206246 60.114028 0 0 0 0 1 delete
06:29:52 57.206310 60.114050 0 0 0 0 1 delete
06:29:51 57.206372 60.114075 0 0 0 0 1 delete
06:29:50 57.206423 60.114098 0 0 0 0 1 delete
06:29:49 57.206469 60.114119 0 0 0 0 1 delete
06:29:48 57.206512 60.114139 0 0 0 0 1 delete
06:29:47 57.206551 60.114151 0 0 0 0 1 delete
06:29:46 57.206590 60.114155 0 0 0 0 1 delete
06:29:45 57.206627 60.114153 0 0 0 0 1 delete
06:29:44 57.206665 60.114152 0 0 0 0 1 delete
06:29:43 57.206705 60.114156 0 0 0 0 1 delete